createdAt,value
2023-02-22T00:02:53.413Z,61.03
2023-02-22T00:08:01.048Z,30.35
2023-02-22T00:13:05.874Z,62.75
2023-02-22T00:18:15.303Z,75.75
2023-02-22T00:23:21.995Z,54.30
2023-02-22T00:28:27.088Z,42.45
2023-02-22T00:33:36.769Z,41.28
2023-02-22T00:38:41.689Z,39.13
2023-02-22T00:43:46.743Z,33.97
2023-02-22T00:48:55.043Z,39.03
2023-02-22T00:53:59.805Z,35.17
2023-02-22T00:59:04.565Z,35.10
2023-02-22T01:04:12.095Z,34.67
2023-02-22T01:09:16.975Z,29.10
2023-02-22T01:14:21.864Z,29.25
2023-02-22T01:19:29.200Z,38.00
2023-02-22T01:24:33.990Z,42.08
2023-02-22T01:29:39.480Z,45.53
2023-02-22T01:34:47.076Z,41.65
2023-02-22T01:39:51.760Z,48.15
2023-02-22T01:45:11.301Z,50.72
2023-02-22T01:50:18.764Z,55.33
2023-02-22T01:55:23.545Z,48.88
2023-02-22T02:00:28.766Z,38.00
2023-02-22T02:05:37.327Z,40.78
2023-02-22T02:10:42.293Z,35.00
2023-02-22T02:15:50.235Z,40.67
2023-02-22T02:21:08.260Z,36.72
2023-02-22T02:26:27.731Z,37.78
2023-02-22T02:31:43.317Z,37.05
2023-02-22T02:36:55.800Z,30.25
2023-02-22T02:42:01.585Z,29.95
2023-02-22T02:47:09.004Z,19.27
2023-02-22T02:52:17.705Z,19.58
2023-02-22T02:57:22.452Z,19.90
2023-02-22T03:02:34.317Z,18.65
2023-02-22T03:07:48.519Z,16.27
2023-02-22T03:13:01.422Z,19.73
2023-02-22T03:18:08.257Z,21.27
2023-02-22T03:23:19.963Z,17.60
2023-02-22T03:28:27.106Z,23.38
2023-02-22T03:33:36.625Z,16.77
2023-02-22T03:38:45.364Z,18.93
2023-02-22T03:43:51.532Z,21.50
2023-02-22T03:48:59.051Z,21.45
2023-02-22T03:54:06.453Z,28.27
2023-02-22T03:59:11.942Z,19.38
2023-02-22T04:04:18.789Z,16.95
2023-02-22T04:09:26.082Z,15.07
2023-02-22T04:14:30.752Z,20.30
2023-02-22T04:19:35.600Z,21.08
2023-02-22T04:24:42.906Z,17.63
2023-02-22T04:29:47.763Z,18.52
2023-02-22T04:34:54.150Z,20.02
2023-02-22T04:40:08.977Z,18.55
2023-02-22T04:45:14.260Z,18.58
2023-02-22T04:50:19.343Z,18.35
2023-02-22T04:55:28.327Z,20.73
2023-02-22T05:00:36.048Z,20.23
2023-02-22T05:05:41.097Z,21.17
2023-02-22T05:10:49.511Z,21.25
2023-02-22T05:21:29.184Z,20.53
2023-02-22T05:26:36.593Z,22.42
2023-02-22T05:31:42.449Z,21.60
2023-02-22T05:36:47.767Z,20.95
2023-02-22T05:41:55.145Z,23.15
2023-02-22T05:46:59.996Z,20.45
2023-02-22T05:52:04.717Z,18.52
2023-02-22T05:57:12.147Z,18.67
2023-02-22T06:02:16.914Z,17.83
2023-02-22T06:07:22.938Z,18.02
2023-02-22T06:12:30.387Z,17.77
2023-02-22T06:17:35.145Z,18.70
2023-02-22T06:22:41.419Z,17.15
2023-02-22T06:27:49.051Z,17.33
2023-02-22T06:32:53.814Z,16.83
2023-02-22T06:37:58.573Z,15.82
2023-02-22T06:43:05.883Z,21.63
2023-02-22T06:48:10.852Z,16.42
2023-02-22T06:53:15.660Z,17.15
2023-02-22T06:58:23.092Z,17.52
2023-02-22T07:03:27.876Z,16.10
2023-02-22T07:08:33.315Z,16.38
2023-02-22T07:13:40.819Z,16.05
2023-02-22T07:18:45.609Z,16.52
2023-02-22T07:23:54.202Z,17.90
2023-02-22T07:29:01.556Z,30.77
2023-02-22T07:34:06.483Z,26.48
2023-02-22T07:39:11.551Z,18.45
2023-02-22T07:44:19.022Z,15.57
2023-02-22T07:49:23.987Z,12.27
2023-02-22T07:54:28.770Z,12.43
2023-02-22T07:59:36.075Z,13.35
2023-02-22T08:04:40.915Z,14.27
2023-02-22T08:09:45.751Z,14.40
2023-02-22T08:14:53.188Z,12.25
2023-02-22T08:19:58.014Z,11.98
2023-02-22T08:25:03.008Z,12.75
2023-02-22T08:30:11.219Z,12.18
2023-02-22T08:35:19.166Z,11.30
2023-02-22T08:40:25.384Z,11.68
2023-02-22T08:45:32.848Z,11.63
2023-02-22T08:50:38.380Z,9.65
2023-02-22T08:55:43.056Z,10.23
2023-02-22T09:00:50.882Z,8.80
2023-02-22T09:05:55.784Z,9.20
2023-02-22T09:11:00.671Z,7.97
2023-02-22T09:16:08.565Z,8.02
2023-02-22T09:21:13.287Z,5.82
2023-02-22T09:26:18.723Z,6.35
2023-02-22T09:31:26.296Z,5.85
2023-02-22T09:36:31.133Z,10.45
2023-02-22T09:41:38.964Z,5.63
2023-02-22T09:46:48.061Z,6.38
2023-02-22T09:51:54.859Z,5.78
2023-02-22T09:57:01.111Z,6.47
2023-02-22T10:02:20.131Z,6.78
2023-02-22T10:07:27.803Z,6.33
2023-02-22T10:12:33.891Z,6.40
2023-02-22T10:17:43.486Z,6.28
2023-02-22T10:22:52.002Z,6.25
2023-02-22T10:27:59.206Z,5.82
2023-02-22T10:33:09.616Z,5.97
2023-02-22T10:38:17.040Z,14.30
2023-02-22T10:43:21.838Z,6.20
2023-02-22T10:48:30.173Z,6.30
2023-02-22T10:53:38.129Z,6.45
2023-02-22T10:58:44.075Z,5.68
2023-02-22T11:03:59.104Z,5.78
2023-02-22T11:09:12.025Z,7.70
2023-02-22T11:14:27.515Z,7.53
2023-02-22T11:19:36.693Z,5.88
2023-02-22T11:24:49.407Z,6.15
2023-02-22T11:29:55.006Z,11.18
2023-02-22T11:35:20.794Z,7.45
2023-02-22T11:40:27.611Z,6.00
2023-02-22T11:45:33.228Z,5.25
2023-02-22T11:50:48.990Z,5.35
2023-02-22T11:55:56.892Z,4.50
2023-02-22T12:01:07.416Z,3.97
2023-02-22T12:06:25.082Z,4.88
2023-02-22T12:11:32.100Z,5.88
2023-02-22T12:16:44.396Z,4.60
2023-02-22T12:21:56.407Z,4.57
2023-02-22T12:27:05.805Z,4.32
2023-02-22T12:32:16.445Z,4.90
2023-02-22T12:37:25.576Z,4.65
2023-02-22T12:42:33.572Z,4.20
2023-02-22T12:47:42.122Z,5.28
2023-02-22T12:52:54.049Z,4.57
2023-02-22T12:58:02.696Z,5.25
2023-02-22T13:03:09.740Z,5.20
2023-02-22T13:08:21.858Z,4.80
2023-02-22T13:13:29.569Z,4.57
2023-02-22T13:18:38.409Z,4.47
2023-02-22T13:23:49.398Z,3.90
2023-02-22T13:28:57.894Z,2.90
2023-02-22T13:34:17.362Z,3.03
2023-02-22T13:39:36.848Z,4.57
2023-02-22T13:44:57.446Z,3.37
2023-02-22T13:50:17.060Z,3.70
2023-02-22T13:55:27.690Z,3.20
2023-02-22T14:00:44.628Z,2.53
2023-02-22T14:05:52.822Z,3.03
2023-02-22T14:11:00.962Z,3.42
2023-02-22T14:16:30.051Z,4.13
2023-02-22T14:21:35.308Z,3.90
2023-02-22T14:26:43.070Z,4.40
2023-02-22T14:32:01.585Z,2.88
2023-02-22T14:37:07.856Z,2.30
2023-02-22T14:42:19.361Z,2.22
2023-02-22T14:47:28.847Z,2.80
2023-02-22T14:52:34.837Z,3.38
2023-02-22T14:57:48.669Z,4.90
2023-02-22T15:02:57.534Z,3.70
2023-02-22T15:08:03.573Z,3.20
2023-02-22T15:13:16.941Z,3.30
2023-02-22T15:18:25.046Z,3.08
2023-02-22T15:23:33.591Z,3.83
2023-02-22T15:28:41.622Z,7.22
2023-02-22T15:33:47.274Z,5.63
2023-02-22T15:38:53.451Z,7.13
2023-02-22T15:44:17.850Z,4.30
2023-02-22T15:49:29.192Z,4.07
2023-02-22T15:54:40.220Z,3.83
2023-02-22T15:59:49.391Z,2.90
2023-02-22T16:05:00.717Z,3.97
2023-02-22T16:10:09.464Z,3.55
2023-02-22T16:15:20.844Z,4.63
2023-02-22T16:20:33.106Z,5.50
2023-02-22T16:25:39.757Z,8.80
2023-02-22T16:30:48.322Z,7.00
2023-02-22T16:35:57.317Z,6.32
2023-02-22T16:41:02.072Z,4.60
2023-02-22T16:46:09.790Z,4.45
2023-02-22T16:51:20.588Z,4.28
2023-02-22T16:56:31.037Z,4.55
2023-02-22T17:01:38.831Z,8.43
2023-02-22T17:06:43.619Z,17.73
2023-02-22T17:11:48.808Z,8.38
2023-02-22T17:16:59.989Z,7.25
2023-02-22T17:22:06.426Z,5.20
2023-02-22T17:27:11.290Z,6.15
2023-02-22T17:32:18.908Z,4.75
2023-02-22T17:37:25.932Z,5.25
2023-02-22T17:42:30.671Z,8.00
2023-02-22T17:47:38.098Z,6.15
2023-02-22T17:52:43.077Z,6.47
2023-02-22T17:57:49.209Z,7.85
2023-02-22T18:02:56.773Z,11.50
2023-02-22T18:08:01.546Z,6.47
2023-02-22T18:13:06.623Z,7.00
2023-02-22T18:18:15.077Z,9.93
2023-02-22T18:23:20.728Z,13.00
2023-02-22T18:28:25.939Z,13.38
2023-02-22T18:33:34.711Z,8.45
2023-02-22T18:38:43.534Z,10.98
2023-02-22T18:43:48.593Z,10.60
2023-02-22T18:48:58.192Z,10.95
2023-02-22T18:54:03.078Z,12.55
2023-02-22T18:59:12.396Z,12.25
2023-02-22T19:04:22.246Z,13.35
2023-02-22T19:09:27.702Z,12.73
2023-02-22T19:14:32.443Z,13.52
2023-02-22T19:19:39.871Z,16.38
2023-02-22T19:24:44.623Z,17.10
2023-02-22T19:29:49.541Z,16.50
2023-02-22T19:35:02.518Z,14.50
2023-02-22T19:40:10.946Z,13.00
2023-02-22T19:45:16.021Z,23.77
2023-02-22T19:50:23.552Z,30.77
2023-02-22T19:55:32.641Z,19.98
2023-02-22T20:00:37.461Z,17.80
2023-02-22T20:05:45.391Z,21.63
2023-02-22T20:10:50.680Z,17.45
2023-02-22T20:15:55.757Z,15.13
2023-02-22T20:21:04.214Z,13.25
2023-02-22T20:26:09.134Z,12.52
2023-02-22T20:31:14.298Z,15.52
2023-02-22T20:36:22.473Z,11.85
2023-02-22T20:41:28.572Z,14.32
2023-02-22T20:46:36.350Z,16.33
2023-02-22T20:51:43.943Z,16.90
2023-02-22T20:56:52.359Z,15.85
2023-02-22T21:01:57.840Z,17.48
2023-02-22T21:07:05.527Z,16.27
2023-02-22T21:12:13.790Z,14.25
2023-02-22T21:17:25.915Z,34.90
2023-02-22T21:22:33.158Z,25.20
2023-02-22T21:27:38.016Z,13.30
2023-02-22T21:32:42.717Z,12.80
2023-02-22T21:37:50.050Z,12.73
2023-02-22T21:42:54.890Z,13.13
2023-02-22T21:47:59.681Z,12.38
2023-02-22T21:53:07.859Z,12.20
2023-02-22T21:58:12.678Z,13.18
2023-02-22T22:03:20.738Z,16.02
2023-02-22T22:08:28.314Z,14.50
2023-02-22T22:13:32.963Z,16.83
2023-02-22T22:18:38.557Z,16.23
2023-02-22T22:23:47.277Z,14.85
2023-02-22T22:28:52.871Z,15.13
2023-02-22T22:33:58.117Z,16.85
2023-02-22T22:39:13.079Z,17.35
2023-02-22T22:44:22.558Z,17.02
2023-02-22T22:49:29.516Z,19.37
2023-02-22T22:54:37.035Z,18.70
2023-02-22T22:59:42.208Z,23.02
2023-02-22T23:04:47.023Z,22.27
2023-02-22T23:09:54.558Z,20.73
2023-02-22T23:14:59.412Z,20.75
2023-02-22T23:20:11.359Z,19.73
2023-02-22T23:25:18.746Z,20.17
2023-02-22T23:30:23.553Z,19.55
2023-02-22T23:35:28.209Z,23.63
2023-02-22T23:40:35.487Z,23.67
2023-02-22T23:45:40.289Z,21.55
2023-02-22T23:50:46.732Z,21.80
2023-02-22T23:55:53.985Z,23.77
